createdAt,value
2023-05-24T00:00:00.655Z,0
2023-05-24T00:05:00.820Z,0
2023-05-24T00:10:00.668Z,0
2023-05-24T00:15:00.663Z,0
2023-05-24T00:20:00.665Z,0
2023-05-24T00:25:00.727Z,0
2023-05-24T00:30:00.664Z,0
2023-05-24T00:35:00.682Z,0
2023-05-24T00:40:00.663Z,0
2023-05-24T00:45:00.668Z,0
2023-05-24T00:50:00.651Z,0
2023-05-24T00:55:00.814Z,0
2023-05-24T01:00:00.665Z,0
2023-05-24T01:05:00.671Z,0
2023-05-24T01:10:00.670Z,0
2023-05-24T01:15:00.668Z,0
2023-05-24T01:20:00.736Z,0
2023-05-24T01:25:00.668Z,0
2023-05-24T01:30:00.685Z,0
2023-05-24T01:35:00.679Z,0
2023-05-24T01:40:00.664Z,0
2023-05-24T01:45:00.688Z,0
2023-05-24T01:50:00.773Z,0
2023-05-24T01:55:00.640Z,0
2023-05-24T02:00:00.672Z,0
2023-05-24T02:05:00.686Z,0
2023-05-24T02:10:00.705Z,0
2023-05-24T02:15:00.689Z,0
2023-05-24T02:20:00.753Z,0
2023-05-24T02:25:00.656Z,0
2023-05-24T02:30:00.684Z,0
2023-05-24T02:35:00.655Z,0
2023-05-24T02:40:00.644Z,0
2023-05-24T02:45:00.782Z,0
2023-05-24T02:50:00.673Z,0
2023-05-24T02:55:00.756Z,0
2023-05-24T03:00:00.711Z,0
2023-05-24T03:05:00.639Z,10
2023-05-24T03:10:00.693Z,17
2023-05-24T03:15:00.653Z,31
2023-05-24T03:20:00.729Z,63
2023-05-24T03:25:00.689Z,89
2023-05-24T03:30:00.655Z,149
2023-05-24T03:35:00.694Z,136
2023-05-24T03:40:00.678Z,160
2023-05-24T03:45:00.785Z,224
2023-05-24T03:50:00.660Z,264
2023-05-24T03:55:00.692Z,436
2023-05-24T04:00:01.297Z,502
2023-05-24T04:05:00.673Z,565
2023-05-24T04:10:00.685Z,621
2023-05-24T04:15:00.674Z,621
2023-05-24T04:20:00.704Z,807
2023-05-24T04:25:00.750Z,907
2023-05-24T04:30:00.880Z,1020
2023-05-24T04:35:00.714Z,1294
2023-05-24T04:40:00.670Z,1644
2023-05-24T04:45:00.729Z,1849
2023-05-24T04:50:01.027Z,1849
2023-05-24T04:55:00.805Z,2079
2023-05-24T05:00:00.709Z,2079
2023-05-24T05:05:00.667Z,2327
2023-05-24T05:10:00.688Z,2635
2023-05-24T05:15:00.713Z,3377
2023-05-24T05:20:00.704Z,3377
2023-05-24T05:25:00.669Z,3377
2023-05-24T05:30:00.672Z,3377
2023-05-24T05:35:00.661Z,3377
2023-05-24T05:40:00.818Z,3377
2023-05-24T05:45:00.680Z,3377
2023-05-24T05:50:00.684Z,3803
2023-05-24T05:55:00.669Z,3803
2023-05-24T06:00:00.792Z,4277
2023-05-24T06:05:00.815Z,5466
2023-05-24T06:10:00.723Z,6149
2023-05-24T06:15:00.686Z,5435
2023-05-24T06:20:00.822Z,6968
2023-05-24T06:25:01.057Z,6882
2023-05-24T06:30:00.721Z,4838
2023-05-24T06:35:00.667Z,5469
2023-05-24T06:40:00.661Z,5406
2023-05-24T06:45:00.945Z,6098
2023-05-24T06:50:00.666Z,5396
2023-05-24T06:55:00.674Z,5554
2023-05-24T07:00:00.669Z,7697
2023-05-24T07:05:00.711Z,6023
2023-05-24T07:10:01.215Z,8156
2023-05-24T07:15:00.667Z,8156
2023-05-24T07:20:00.701Z,7226
2023-05-24T07:25:00.661Z,8134
2023-05-24T07:30:00.675Z,9145
2023-05-24T07:35:00.680Z,10297
2023-05-24T07:40:00.699Z,9352
2023-05-24T07:45:00.653Z,9352
2023-05-24T07:50:00.816Z,8314
2023-05-24T07:55:00.731Z,11652
2023-05-24T08:00:00.671Z,13986
2023-05-24T08:05:00.668Z,15223
2023-05-24T08:10:00.672Z,8867
2023-05-24T08:15:00.696Z,8867
2023-05-24T08:20:00.738Z,8867
2023-05-24T08:25:00.660Z,9972
2023-05-24T08:30:00.796Z,13896
2023-05-24T08:35:18.318Z,15787
2023-05-24T08:40:00.664Z,15787
2023-05-24T08:45:00.694Z,14263
2023-05-24T08:50:00.684Z,12126
2023-05-24T08:55:00.674Z,12153
2023-05-24T09:00:00.682Z,15635
2023-05-24T09:05:00.906Z,9510
2023-05-24T09:10:00.656Z,6645
2023-05-24T09:15:00.690Z,5910
2023-05-24T09:20:00.836Z,5248
2023-05-24T09:25:00.691Z,8521
2023-05-24T09:30:00.693Z,16244
2023-05-24T09:35:00.686Z,12114
2023-05-24T09:40:00.815Z,15336
2023-05-24T09:45:00.647Z,16943
2023-05-24T09:50:00.720Z,16554
2023-05-24T09:55:00.654Z,16554
2023-05-24T10:00:00.669Z,10730
2023-05-24T10:05:00.802Z,8461
2023-05-24T10:10:00.642Z,12109
2023-05-24T10:15:00.648Z,9561
2023-05-24T10:20:00.706Z,18677
2023-05-24T10:25:00.647Z,12148
2023-05-24T10:30:00.664Z,15842
2023-05-24T10:35:00.683Z,21135
2023-05-24T10:40:00.753Z,25264
2023-05-24T10:45:00.663Z,47044
2023-05-24T10:50:00.686Z,70502
2023-05-24T10:55:04.286Z,26188
2023-05-24T11:00:00.652Z,17865
2023-05-24T11:05:00.695Z,18561
2023-05-24T11:10:00.664Z,24238
2023-05-24T11:15:00.669Z,36669
2023-05-24T11:20:00.735Z,18544
2023-05-24T11:25:00.682Z,50455
2023-05-24T11:30:00.734Z,53432
2023-05-24T11:35:00.711Z,31783
2023-05-24T11:40:00.689Z,32092
2023-05-24T11:45:00.637Z,28242
2023-05-24T11:50:00.666Z,75527
2023-05-24T11:55:00.701Z,62460
2023-05-24T12:00:00.695Z,47632
2023-05-24T12:05:00.971Z,41572
2023-05-24T12:10:00.655Z,30535
2023-05-24T12:15:00.687Z,30367
2023-05-24T12:20:00.717Z,23083
2023-05-24T12:25:00.729Z,19149
2023-05-24T12:30:00.705Z,24005
2023-05-24T12:35:00.672Z,45551
2023-05-24T12:40:00.663Z,40813
2023-05-24T12:45:00.697Z,50431
2023-05-24T12:50:00.661Z,70599
2023-05-24T12:55:00.656Z,16623
2023-05-24T13:00:00.673Z,62259
2023-05-24T13:05:00.884Z,62259
2023-05-24T13:10:00.700Z,15985
2023-05-24T13:15:00.727Z,61433
2023-05-24T13:20:00.757Z,20455
2023-05-24T13:25:00.711Z,16151
2023-05-24T13:30:01.845Z,9546
2023-05-24T13:35:00.681Z,7520
2023-05-24T13:40:00.730Z,7520
2023-05-24T13:45:00.761Z,7520
2023-05-24T13:50:00.689Z,8449
2023-05-24T13:55:00.683Z,9497
2023-05-24T14:00:00.773Z,10691
2023-05-24T14:05:17.376Z,9508
2023-05-24T14:10:00.789Z,8459
2023-05-24T14:15:00.707Z,8385
2023-05-24T14:20:00.826Z,8385
2023-05-24T14:25:00.905Z,7520
2023-05-24T14:30:00.856Z,5913
2023-05-24T14:35:00.640Z,5913
2023-05-24T14:40:00.797Z,5913
2023-05-24T14:45:00.721Z,6662
2023-05-24T14:50:00.696Z,7511
2023-05-24T14:55:00.672Z,7511
2023-05-24T15:00:00.707Z,4695
2023-05-24T15:05:00.673Z,3706
2023-05-24T15:10:00.663Z,4713
2023-05-24T15:15:00.671Z,5988
2023-05-24T15:20:00.743Z,5988
2023-05-24T15:25:00.675Z,5309
2023-05-24T15:30:00.753Z,4173
2023-05-24T15:35:00.684Z,4173
2023-05-24T15:40:00.668Z,4702
2023-05-24T15:45:00.697Z,4702
2023-05-24T15:50:00.671Z,4702
2023-05-24T15:55:00.658Z,4702
2023-05-24T16:00:00.922Z,4702
2023-05-24T16:05:00.692Z,5066
2023-05-24T16:10:00.687Z,5066
2023-05-24T16:15:00.972Z,5066
2023-05-24T16:20:00.911Z,5066
2023-05-24T16:25:00.714Z,5306
2023-05-24T16:30:00.647Z,5965
2023-05-24T16:35:00.700Z,5965
2023-05-24T16:50:01.889Z,5965
2023-05-24T16:55:01.195Z,5965
2023-05-24T17:05:00.718Z,4631
2023-05-24T17:10:00.610Z,4631
2023-05-24T17:15:00.893Z,4631
2023-05-24T17:20:00.768Z,4631
2023-05-24T17:25:00.951Z,4180
2023-05-24T17:30:00.876Z,4180
2023-05-24T17:35:00.816Z,3720
2023-05-24T17:40:00.765Z,2933
2023-05-24T17:45:00.867Z,2607
2023-05-24T17:50:00.843Z,2607
2023-05-24T17:55:01.022Z,2227
2023-05-24T18:00:00.843Z,2062
2023-05-24T18:05:00.798Z,2062
2023-05-24T18:10:00.866Z,2062
2023-05-24T18:15:00.787Z,2062
2023-05-24T18:20:01.058Z,2062
2023-05-24T18:25:01.769Z,2062
2023-05-24T18:30:00.776Z,1835
2023-05-24T18:35:00.999Z,1835
2023-05-24T18:40:00.831Z,1633
2023-05-24T18:45:00.821Z,1633
2023-05-24T18:50:01.005Z,1323
2023-05-24T18:55:01.026Z,1148
2023-05-24T19:00:00.646Z,1021
2023-05-24T19:05:00.890Z,905
2023-05-24T19:10:00.698Z,804
2023-05-24T19:15:00.745Z,633
2023-05-24T19:20:00.988Z,476
2023-05-24T19:25:00.557Z,404
2023-05-24T19:30:00.704Z,291
2023-05-24T19:35:00.691Z,208
2023-05-24T19:40:00.697Z,200
2023-05-24T19:45:00.851Z,142
2023-05-24T19:50:01.175Z,85
2023-05-24T19:55:00.978Z,51
2023-05-24T20:00:00.749Z,30
2023-05-24T20:05:00.565Z,16
2023-05-24T20:10:00.769Z,9
2023-05-24T20:15:00.726Z,9
2023-05-24T20:20:00.795Z,9
2023-05-24T20:25:00.800Z,9
2023-05-24T20:30:00.804Z,2
2023-05-24T20:35:00.770Z,2
2023-05-24T20:40:00.883Z,0
2023-05-24T20:45:00.708Z,0
2023-05-24T20:50:02.234Z,0
2023-05-24T20:55:01.450Z,0
2023-05-24T21:00:00.896Z,0
2023-05-24T21:05:01.033Z,0
2023-05-24T21:10:01.099Z,0
2023-05-24T21:15:00.761Z,0
2023-05-24T21:20:00.764Z,0
2023-05-24T21:25:00.841Z,0
2023-05-24T21:30:01.249Z,0
2023-05-24T21:35:01.349Z,0
2023-05-24T21:40:00.762Z,0
2023-05-24T21:45:00.950Z,0
2023-05-24T21:50:00.816Z,0
2023-05-24T21:55:01.004Z,0
2023-05-24T22:00:00.868Z,0
2023-05-24T22:05:01.009Z,0
2023-05-24T22:10:00.692Z,0
2023-05-24T22:15:00.677Z,0
2023-05-24T22:20:00.997Z,0
2023-05-24T22:25:03.139Z,0
2023-05-24T22:30:00.681Z,0
2023-05-24T22:35:00.701Z,0
2023-05-24T22:40:00.754Z,0
2023-05-24T22:45:00.880Z,0
2023-05-24T22:50:00.929Z,0
2023-05-24T22:55:00.737Z,0
2023-05-24T23:00:00.885Z,0
2023-05-24T23:05:00.768Z,0
2023-05-24T23:10:00.880Z,0
2023-05-24T23:15:00.815Z,0
2023-05-24T23:20:00.880Z,0
2023-05-24T23:25:00.992Z,0
